Baise, China
Current Conditions -  °F | °C
As of 7:00 PM on Saturday 25 Oct 2014 (Local Time) from ZGNN Reporting Station
Haze Haze  
Wind Chill: 73°   Ceiling: Unl
Heat Index: 73°   Visibility: 3mi
Dew Point: 73°   Wind: 2mph
Humidity: 100%   Direction: NA
Pressure: 29.97"   Gusts: NA
Location:  23.9°N, 106.6°E
Report Text: ZGNN 251100Z VRB01MPS 5000 BR NSC 23/23 Q1015 NOSIG
Loading
Personal Weather Stations






























Interactive Weather Map
Tropical Storm Tracking
New forecast layout! Learn more

10-Day Weather Forecast

Advertisements
Track Severe Weather on mobile